Flight Track Log - Related Links

Times and Time Zones

All times are in EDT time to prevent confusion due to time zone crossing. See the EJA929 flight status page for this flight to view local times or setup timezone preferences in your user account.

Time Position Orientation Groundspeed Altitude Reporting Facility
EDT Latitude Longitude Course Direction KTS MPH feet Rate Location/Type
Sun 02:50:41 PM 41.0333 -73.7333 285° West 208 239 3,000  Level New York TRACON
Sun 02:51:41 PM 41.0500 -73.8167 285° West 225 259 5,200 2,400 Climbing New York TRACON
Sun 02:52:41 PM 41.0167 -73.9000 242° Southwest 275 316 7,800 2,200 Climbing New York TRACON
Sun 02:53:41 PM 40.9833 -74.0000 246° West 292 336 9,600 1,900 Climbing New York TRACON
Sun 02:54:41 PM 40.9500 -74.1000 246° West 321 369 11,600 1,900 Climbing New York TRACON
Sun 02:55:41 PM 40.9167 -74.2333 252° West 355 409 13,400 1,700 Climbing New York TRACON
Sun 02:56:41 PM 40.8833 -74.3500 249° West 380 437 15,000 1,100 Climbing New York TRACON
Sun 02:57:41 PM 40.8500 -74.5000 254° West 413 475 15,600 945 Climbing New York TRACON
Sun 02:58:48 PM 40.8017 -74.6611 248° West 411 473 17,000 661 Climbing New York Center
Sun 02:59:48 PM 40.7636 -74.7986 250° West 440 506 17,000  Level New York Center
Sun 03:00:48 PM 40.7233 -74.9414 250° West 460 529 17,000  Level New York Center
Sun 03:01:48 PM 40.6764 -75.0889 247° West 450 518 17,000 1,000 Level New York Center
Sun 03:02:48 PM 40.6125 -75.2381 241° Southwest 440 506 19,000 2,100 Climbing New York Center
Sun 03:03:48 PM 40.5536 -75.3625 238° Southwest 420 483 21,200 1,950 Climbing New York Center
Sun 03:04:48 PM 40.4942 -75.4922 239° Southwest 415 478 22,900 1,700 Climbing New York Center
Sun 03:05:48 PM 40.4347 -75.6247 240° Southwest 415 478 24,600 1,850 Climbing New York Center
Sun 03:06:48 PM 40.3728 -75.7619 239° Southwest 427 491 26,600 2,100 Climbing New York Center
Sun 03:07:48 PM 40.3108 -75.8936 238° Southwest 427 491 28,800 1,750 Climbing New York Center
Sun 03:08:48 PM 40.2422 -76.0325 237° Southwest 438 504 30,100 1,050 Climbing New York Center
Sun 03:09:48 PM 40.1892 -76.1456 238° Southwest 449 517 30,900 1,050 Climbing New York Center
Sun 03:10:48 PM 40.1167 -76.3164 241° Southwest 477 549 32,200 1,400 Climbing New York Center
Sun 03:11:48 PM 40.0586 -76.4800 245° Southwest 491 565 33,700 1,550 Climbing New York Center
Sun 03:12:48 PM 40.0008 -76.6406 245° Southwest 502 578 35,300 1,605 Climbing New York Center
Sun 03:14:40 PM 39.8958 -76.9300 245° Southwest 469 540 38,300 1,500 Climbing Washington Center
Sun 03:15:40 PM 39.8397 -77.0858 245° Southwest 469 540 39,600 864 Climbing Washington Center
Sun 03:16:38 PM 39.7814 -77.2494 245° Southwest 481 554 40,000 202 Climbing Washington Center
Sun 03:17:39 PM 39.7208 -77.4125 244° Southwest 493 567 40,000  Level Washington Center
Sun 03:18:40 PM 39.6597 -77.5781 244° Southwest 504 580 40,000  Level Washington Center
Sun 03:19:38 PM 39.5986 -77.7433 244° Southwest 504 580 40,000  Level Washington Center
Sun 03:20:39 PM 39.5394 -77.9031 244° Southwest 504 580 40,000  Level Washington Center
Sun 03:21:39 PM 39.4800 -78.0653 245° Southwest 504 580 40,000  Level Washington Center
Sun 03:22:39 PM 39.4203 -78.2217 244° Southwest 504 580 40,000  Level Washington Center
Sun 03:23:38 PM 39.3606 -78.3833 245° Southwest 504 580 40,000  Level Washington Center
Sun 03:24:39 PM 39.3003 -78.5419 244° Southwest 504 580 40,000  Level Washington Center
Sun 03:25:40 PM 39.2400 -78.7003 244° Southwest 499 574 40,000  Level Washington Center
Sun 03:26:40 PM 39.1819 -78.8531 244° Southwest 499 574 40,000  Level Washington Center
Sun 03:27:38 PM 39.1214 -79.0056 243° Southwest 494 568 40,000  Level Washington Center
Sun 03:28:39 PM 39.0628 -79.1606 244° Southwest 488 562 40,000  Level Washington Center
Sun 03:29:40 PM 39.0017 -79.3153 243° Southwest 482 555 40,000  Level Washington Center
Sun 03:30:38 PM 38.9428 -79.4669 244° Southwest 482 555 40,000  Level Washington Center
Sun 03:31:39 PM 38.8853 -79.6267 245° Southwest 477 549 40,000  Level Washington Center
Sun 03:32:39 PM 38.8258 -79.7806 244° Southwest 484 557 40,000  Level Washington Center
Sun 03:33:21 PM 38.7733 -79.8956 240° Southwest 481 554 40,000  Level Indianapolis Center
Sun 03:34:23 PM 38.7122 -80.0469 243° Southwest 480 552 40,000  Level Indianapolis Center
Sun 03:35:25 PM 38.6553 -80.2006 245° Southwest 478 550 40,000  Level Indianapolis Center
Sun 03:36:27 PM 38.6247 -80.3633 257° West 472 543 40,000  Level Indianapolis Center
Sun 03:37:29 PM 38.5958 -80.5225 257° West 463 533 40,000  Level Indianapolis Center
Sun 03:38:31 PM 38.5647 -80.6825 256° West 463 533 40,000  Level Indianapolis Center
Sun 03:39:33 PM 38.5347 -80.8417 256° West 460 529 40,000  Level Indianapolis Center
Sun 03:40:35 PM 38.4969 -81.0314 256° West 459 528 40,000  Level Indianapolis Center
Sun 03:41:37 PM 38.4656 -81.1906 256° West 459 528 40,000  Level Indianapolis Center
Sun 03:42:39 PM 38.4336 -81.3497 256° West 459 528 40,000  Level Indianapolis Center
Sun 03:43:41 PM 38.4028 -81.5083 256° West 455 524 40,000  Level Indianapolis Center
Sun 03:44:43 PM 38.3700 -81.6658 255° West 455 524 40,000  Level Indianapolis Center
Sun 03:45:45 PM 38.3369 -81.8206 255° West 451 519 40,000  Level Indianapolis Center
Sun 03:46:47 PM 38.2933 -81.9722 250° West 454 522 40,000  Level Indianapolis Center
Sun 03:47:49 PM 38.2508 -82.1233 250° West 454 522 40,000  Level Indianapolis Center
Sun 03:48:51 PM 38.1992 -82.3042 250° West 453 521 40,000  Level Indianapolis Center
Sun 03:49:54 PM 38.1564 -82.4547 250° West 453 521 40,000  Level Indianapolis Center
Sun 03:50:56 PM 38.1150 -82.5992 250° West 449 517 40,000  Level Indianapolis Center
Sun 03:51:58 PM 38.0725 -82.7486 250° West 450 518 40,000  Level Indianapolis Center
Sun 03:53:00 PM 38.0214 -82.9228 250° West 452 520 40,000  Level Indianapolis Center
Sun 03:54:02 PM 37.9781 -83.0719 250° West 450 518 40,000  Level Indianapolis Center
Sun 03:55:04 PM 37.9347 -83.2183 249° West 447 514 40,000  Level Indianapolis Center
Sun 03:56:06 PM 37.8917 -83.3664 250° West 448 516 40,000  Level Indianapolis Center
Sun 03:57:08 PM 37.8481 -83.5128 249° West 446 513 40,000 -726 Level Indianapolis Center
Sun 03:58:10 PM 37.7967 -83.6853 249° West 451 519 38,500 -1,597 Descending Indianapolis Center
Sun 03:59:12 PM 37.7497 -83.8392 249° West 466 536 36,700 -2,081 Descending Indianapolis Center
Sun 04:00:14 PM 37.7036 -83.9919 249° West 467 537 34,200 -2,274 Descending Indianapolis Center
Sun 04:01:16 PM 37.6514 -84.1464 247° West 482 555 32,000 -1,065 Descending Indianapolis Center
Sun 04:02:18 PM 37.5561 -84.2736 227° Southwest 501 577 32,000  Level Indianapolis Center
Sun 04:03:21 PM 37.4422 -84.4108 224° Southwest 490 564 32,000 -97 Level Indianapolis Center
Sun 04:04:22 PM 37.3442 -84.5264 223° Southwest 486 559 31,800 -968 Descending Indianapolis Center
Sun 04:05:25 PM 37.2453 -84.6439 223° Southwest 487 560 30,000 -1,728 Descending Indianapolis Center
Sun 04:06:27 PM 37.1453 -84.7631 224° Southwest 494 568 28,200 -1,742 Descending Indianapolis Center
Sun 04:07:29 PM 37.0458 -84.8767 222° Southwest 486 559 26,400 -1,790 Descending Indianapolis Center
Sun 04:08:31 PM 36.9486 -84.9917 223° Southwest 466 536 24,500 -1,161 Descending Indianapolis Center
Sun 04:09:33 PM 36.8794 -85.1239 237° Southwest 455 524 24,000 -871 Descending Indianapolis Center
Sun 04:10:35 PM 36.8072 -85.2800 240° Southwest 437 503 22,700 -968 Descending Indianapolis Center
Sun 04:11:37 PM 36.7486 -85.4031 239° Southwest 418 481 22,000 -339 Descending Indianapolis Center
Sun 04:12:39 PM 36.6922 -85.5253 240° Southwest 409 471 22,000 -871 Level Indianapolis Center
Sun 04:13:41 PM 36.6350 -85.6450 239° Southwest 405 466 20,200 -2,226 Descending Indianapolis Center
Sun 04:14:43 PM 36.5750 -85.7711 239° Southwest 421 484 17,400 -2,806 Descending Indianapolis Center
Sun 04:15:45 PM 36.5164 -85.8950 240° Southwest 402 463 14,400 -2,516 Descending Indianapolis Center
Sun 04:16:47 PM 36.4669 -86.0036 241° Southwest 361 415 12,200 -1,984 Descending Indianapolis Center
Sun 04:17:49 PM 36.4192 -86.1169 242° Southwest 316 364 10,300 -1,829 Descending Indianapolis Center
Sun 04:18:32 PM 36.3950 -86.1761 243° Southwest 299 344 9,000 -1,657 Descending Memphis Center
Sun 04:19:34 PM 36.3586 -86.2625 242° Southwest 284 327 7,400 -1,548 Descending Memphis Center
Sun 04:20:36 PM 36.3233 -86.3475 243° Southwest 277 319 5,800 -1,645 Descending Memphis Center
Sun 04:21:38 PM 36.2881 -86.4306 242° Southwest 272 313 4,000 -1,548 Descending Memphis Center
Sun 04:22:40 PM 36.2542 -86.5117 243° Southwest 266 306 2,600 -968 Descending Memphis Center
Sun 04:23:42 PM 36.2244 -86.5814 242° Southwest 237 273 2,000 -339 Descending Memphis Center
Sun 04:24:44 PM 36.1986 -86.6350 239° Southwest 195 224 1,900 -484 Descending Memphis Center
Sun 04:25:46 PM 36.1558 -86.6511 197° South 147 169 1,000 -581 Descending Memphis Center
Sun 04:26:48 PM 36.1211 -86.6633 196° South 136 157 700 -290 Descending Memphis Center

Login

Don't have an account? Register now (free) for customized features, flight alerts, and more!